ENSB

Svalbard , Longyear Airport

Longyearbyen, Norway
METAR ENSB 212150Z 25013KT 9999 FEW008 06/02 Q1011 RMK WIND 1400FT 28005KT
Observed Flight Rules
Jun-21 @ 21:50 UTC (14 minutes ago) Visual Flight Rules
Wind Visibility Clouds
250° at 13 knots 10,000+ meters
  • Few at 800' AGL
Temperatures Readings
Current 6°C / 43°F
Dewpoint 2°C / 36°F
Humidity 76%
Altimeter 29.85" Hg
Pressure 1011 hPa
Elevation 29
METAR ENSB 212150Z 25013KT 9999 FEW008 06/02 Q1011 RMK WIND 1400FT 28005KT
Observed Flight Rules
Jun-21 @ 21:50 UTC
(14 minutes ago)
VFR
Wind Visibility
250° at 13 knots 10,000+ meters
Clouds
  • Few at 800' AGL
Temperature Dewpoint
6°C / 43°F 2°C / 36°F
Humidity Altimeter Pressure
76% 29.85" Hg 1011 hPa